sensor_id;sensor_type;location;lat;lon;timestamp;pressure;altitude;pressure_sealevel;temperature;humidity
26083;BME280;13848;49.018;12.078;2023-08-06T00:00:06;96863.22;;;16.92;90.99
26083;BME280;13848;49.018;12.078;2023-08-06T00:02:32;96850.50;;;16.88;91.44
26083;BME280;13848;49.018;12.078;2023-08-06T00:04:58;96842.59;;;16.86;91.17
26083;BME280;13848;49.018;12.078;2023-08-06T00:07:25;96844.53;;;16.81;91.60
26083;BME280;13848;49.018;12.078;2023-08-06T00:09:51;96844.50;;;16.86;91.47
26083;BME280;13848;49.018;12.078;2023-08-06T00:12:17;96845.59;;;16.85;91.35
26083;BME280;13848;49.018;12.078;2023-08-06T00:14:43;96840.66;;;16.87;91.43
26083;BME280;13848;49.018;12.078;2023-08-06T00:17:09;96837.16;;;16.81;91.53
26083;BME280;13848;49.018;12.078;2023-08-06T00:19:35;96836.91;;;16.83;91.53
26083;BME280;13848;49.018;12.078;2023-08-06T00:22:01;96844.22;;;16.87;91.46
26083;BME280;13848;49.018;12.078;2023-08-06T00:24:28;96837.44;;;16.85;91.76
26083;BME280;13848;49.018;12.078;2023-08-06T00:26:54;96858.09;;;16.86;91.56
26083;BME280;13848;49.018;12.078;2023-08-06T00:29:20;96854.28;;;16.87;91.66
26083;BME280;13848;49.018;12.078;2023-08-06T00:31:46;96842.88;;;16.85;91.71
26083;BME280;13848;49.018;12.078;2023-08-06T00:34:12;96854.88;;;16.84;91.98
26083;BME280;13848;49.018;12.078;2023-08-06T00:36:38;96846.22;;;16.77;92.17
26083;BME280;13848;49.018;12.078;2023-08-06T00:39:04;96861.66;;;16.81;92.02
26083;BME280;13848;49.018;12.078;2023-08-06T00:41:31;96855.41;;;16.81;92.19
26083;BME280;13848;49.018;12.078;2023-08-06T00:43:57;96853.81;;;16.74;92.88
26083;BME280;13848;49.018;12.078;2023-08-06T00:46:23;96855.50;;;16.70;93.07
26083;BME280;13848;49.018;12.078;2023-08-06T00:48:50;96856.00;;;16.67;92.83
26083;BME280;13848;49.018;12.078;2023-08-06T00:51:16;96853.00;;;16.69;92.47
26083;BME280;13848;49.018;12.078;2023-08-06T00:53:42;96842.13;;;16.69;91.91
26083;BME280;13848;49.018;12.078;2023-08-06T00:56:09;96845.94;;;16.68;92.38
26083;BME280;13848;49.018;12.078;2023-08-06T00:58:37;96848.38;;;16.69;92.11
26083;BME280;13848;49.018;12.078;2023-08-06T01:01:04;96845.66;;;16.69;92.37
26083;BME280;13848;49.018;12.078;2023-08-06T01:03:29;96850.88;;;16.71;92.27
26083;BME280;13848;49.018;12.078;2023-08-06T01:05:56;96850.06;;;16.70;92.29
26083;BME280;13848;49.018;12.078;2023-08-06T01:08:34;96850.00;;;16.75;92.27
26083;BME280;13848;49.018;12.078;2023-08-06T01:11:12;96844.84;;;16.69;92.11
26083;BME280;13848;49.018;12.078;2023-08-06T01:13:43;96842.69;;;16.66;92.37
26083;BME280;13848;49.018;12.078;2023-08-06T01:16:11;96837.47;;;16.69;92.38
26083;BME280;13848;49.018;12.078;2023-08-06T01:18:37;96834.75;;;16.69;92.25
26083;BME280;13848;49.018;12.078;2023-08-06T01:21:04;96828.81;;;16.72;91.92
26083;BME280;13848;49.018;12.078;2023-08-06T01:23:30;96829.91;;;16.71;91.20
26083;BME280;13848;49.018;12.078;2023-08-06T01:26:05;96826.06;;;16.72;91.00
26083;BME280;13848;49.018;12.078;2023-08-06T01:28:51;96826.06;;;16.72;90.43
26083;BME280;13848;49.018;12.078;2023-08-06T01:31:22;96834.81;;;16.64;89.05
26083;BME280;13848;49.018;12.078;2023-08-06T01:33:50;96831.06;;;16.55;88.74
26083;BME280;13848;49.018;12.078;2023-08-06T01:36:19;96826.75;;;16.44;87.91
26083;BME280;13848;49.018;12.078;2023-08-06T01:38:46;96833.44;;;16.12;87.19
26083;BME280;13848;49.018;12.078;2023-08-06T01:41:11;96836.16;;;16.12;87.56
26083;BME280;13848;49.018;12.078;2023-08-06T01:43:37;96838.59;;;16.14;87.02
26083;BME280;13848;49.018;12.078;2023-08-06T01:46:03;96838.03;;;16.12;86.76
26083;BME280;13848;49.018;12.078;2023-08-06T01:48:29;96842.72;;;16.06;86.39
26083;BME280;13848;49.018;12.078;2023-08-06T01:50:55;96837.53;;;16.05;87.14
26083;BME280;13848;49.018;12.078;2023-08-06T01:53:22;96835.09;;;15.98;87.34
26083;BME280;13848;49.018;12.078;2023-08-06T01:55:49;96833.47;;;16.02;86.93
26083;BME280;13848;49.018;12.078;2023-08-06T01:58:15;96831.28;;;15.99;86.97
26083;BME280;13848;49.018;12.078;2023-08-06T02:00:41;96837.28;;;16.01;87.05
26083;BME280;13848;49.018;12.078;2023-08-06T02:03:07;96820.97;;;16.01;87.29
26083;BME280;13848;49.018;12.078;2023-08-06T02:05:32;96820.97;;;16.01;87.13
26083;BME280;13848;49.018;12.078;2023-08-06T02:07:58;96821.50;;;15.98;86.97
26083;BME280;13848;49.018;12.078;2023-08-06T02:10:26;96810.63;;;15.98;86.44
26083;BME280;13848;49.018;12.078;2023-08-06T02:12:52;96811.22;;;15.95;86.78
26083;BME280;13848;49.018;12.078;2023-08-06T02:15:17;96814.75;;;15.90;87.05
26083;BME280;13848;49.018;12.078;2023-08-06T02:17:43;96813.38;;;15.93;86.67
26083;BME280;13848;49.018;12.078;2023-08-06T02:20:10;96811.75;;;15.92;86.43
26083;BME280;13848;49.018;12.078;2023-08-06T02:22:36;96809.31;;;15.90;86.79
26083;BME280;13848;49.018;12.078;2023-08-06T02:25:02;96806.88;;;15.89;86.65
26083;BME280;13848;49.018;12.078;2023-08-06T02:27:29;96802.28;;;15.84;87.02
26083;BME280;13848;49.018;12.078;2023-08-06T02:29:55;96802.00;;;15.81;87.21
26083;BME280;13848;49.018;12.078;2023-08-06T02:32:21;96787.88;;;15.84;87.00
26083;BME280;13848;49.018;12.078;2023-08-06T02:34:47;96795.22;;;15.83;87.00
26083;BME280;13848;49.018;12.078;2023-08-06T02:37:12;96795.44;;;15.87;86.19
26083;BME280;13848;49.018;12.078;2023-08-06T02:39:38;96801.72;;;15.82;86.25
26083;BME280;13848;49.018;12.078;2023-08-06T02:42:05;96798.75;;;15.79;85.89
26083;BME280;13848;49.018;12.078;2023-08-06T02:44:33;96801.72;;;15.82;85.55
26083;BME280;13848;49.018;12.078;2023-08-06T02:46:59;96800.69;;;15.68;86.17
26083;BME280;13848;49.018;12.078;2023-08-06T02:49:25;96791.72;;;15.67;86.75
26083;BME280;13848;49.018;12.078;2023-08-06T02:51:51;96800.41;;;15.64;86.40
26083;BME280;13848;49.018;12.078;2023-08-06T02:54:16;96793.34;;;15.63;86.53
26083;BME280;13848;49.018;12.078;2023-08-06T02:56:43;96798.22;;;15.61;86.72
26083;BME280;13848;49.018;12.078;2023-08-06T02:59:09;96800.94;;;15.61;86.25
26083;BME280;13848;49.018;12.078;2023-08-06T03:01:36;96801.50;;;15.63;85.88
26083;BME280;13848;49.018;12.078;2023-08-06T03:04:02;96802.59;;;15.62;86.06
26083;BME280;13848;49.018;12.078;2023-08-06T03:06:28;96802.06;;;15.65;86.33
26083;BME280;13848;49.018;12.078;2023-08-06T03:08:54;96802.59;;;15.62;86.25
26083;BME280;13848;49.018;12.078;2023-08-06T03:11:20;96804.75;;;15.60;86.91
26083;BME280;13848;49.018;12.078;2023-08-06T03:13:46;96803.13;;;15.64;86.59
26083;BME280;13848;49.018;12.078;2023-08-06T03:16:12;96806.94;;;15.63;86.47
26083;BME280;13848;49.018;12.078;2023-08-06T03:18:40;96802.59;;;15.62;86.28
26083;BME280;13848;49.018;12.078;2023-08-06T03:21:06;96799.88;;;15.57;86.75
26083;BME280;13848;49.018;12.078;2023-08-06T03:23:32;96789.00;;;15.57;85.86
26083;BME280;13848;49.018;12.078;2023-08-06T03:26:01;96792.00;;;15.46;86.39
26083;BME280;13848;49.018;12.078;2023-08-06T03:28:27;96797.16;;;15.52;86.11
26083;BME280;13848;49.018;12.078;2023-08-06T03:30:59;96795.53;;;15.51;86.31
26083;BME280;13848;49.018;12.078;2023-08-06T03:33:25;96793.91;;;15.45;86.77
26083;BME280;13848;49.018;12.078;2023-08-06T03:35:52;96790.91;;;15.47;86.81
26083;BME280;13848;49.018;12.078;2023-08-06T03:38:18;96794.19;;;15.49;86.00
26083;BME280;13848;49.018;12.078;2023-08-06T03:40:44;96793.09;;;15.50;86.32
26083;BME280;13848;49.018;12.078;2023-08-06T03:43:10;96787.38;;;15.46;86.54
26083;BME280;13848;49.018;12.078;2023-08-06T03:45:35;96776.53;;;15.46;86.87
26083;BME280;13848;49.018;12.078;2023-08-06T03:48:01;96772.47;;;15.43;87.06
26083;BME280;13848;49.018;12.078;2023-08-06T03:50:27;96775.19;;;15.43;87.41
26083;BME280;13848;49.018;12.078;2023-08-06T03:52:55;96794.44;;;15.47;87.55
26083;BME280;13848;49.018;12.078;2023-08-06T03:55:21;96794.44;;;15.47;87.40
26083;BME280;13848;49.018;12.078;2023-08-06T03:57:47;96783.06;;;15.45;87.46
26083;BME280;13848;49.018;12.078;2023-08-06T04:00:13;96791.47;;;15.49;87.57
26083;BME280;13848;49.018;12.078;2023-08-06T04:02:39;96784.66;;;15.51;86.76
26083;BME280;13848;49.018;12.078;2023-08-06T04:05:05;96793.34;;;15.53;86.87
26083;BME280;13848;49.018;12.078;2023-08-06T04:07:31;96796.34;;;15.47;86.69
26083;BME280;13848;49.018;12.078;2023-08-06T04:10:00;96800.44;;;15.49;86.81
26083;BME280;13848;49.018;12.078;2023-08-06T04:12:26;96786.28;;;15.47;86.81
26083;BME280;13848;49.018;12.078;2023-08-06T04:14:53;96787.94;;;15.48;86.31
26083;BME280;13848;49.018;12.078;2023-08-06T04:17:19;96785.25;;;15.43;86.49
26083;BME280;13848;49.018;12.078;2023-08-06T04:19:47;96788.50;;;15.40;86.56
26083;BME280;13848;49.018;12.078;2023-08-06T04:22:13;96784.13;;;15.44;86.54
26083;BME280;13848;49.018;12.078;2023-08-06T04:24:39;96784.44;;;15.42;86.51
26083;BME280;13848;49.018;12.078;2023-08-06T04:27:06;96792.81;;;15.46;86.21
26083;BME280;13848;49.018;12.078;2023-08-06T04:29:32;96786.84;;;15.44;86.26
26083;BME280;13848;49.018;12.078;2023-08-06T04:31:58;96785.75;;;15.45;86.58
26083;BME280;13848;49.018;12.078;2023-08-06T04:34:24;96786.31;;;15.42;86.17
26083;BME280;13848;49.018;12.078;2023-08-06T04:36:50;96784.13;;;15.44;86.06
26083;BME280;13848;49.018;12.078;2023-08-06T04:39:16;96787.13;;;15.42;86.31
26083;BME280;13848;49.018;12.078;2023-08-06T04:41:41;96785.75;;;15.45;85.92
26083;BME280;13848;49.018;12.078;2023-08-06T04:44:09;96774.09;;;15.44;86.56
26083;BME280;13848;49.018;12.078;2023-08-06T04:46:35;96775.44;;;15.42;86.85
26083;BME280;13848;49.018;12.078;2023-08-06T04:49:00;96770.00;;;15.42;87.00
26083;BME280;13848;49.018;12.078;2023-08-06T04:51:26;96767.84;;;15.44;87.28
26083;BME280;13848;49.018;12.078;2023-08-06T04:53:52;96767.84;;;15.49;87.13
26083;BME280;13848;49.018;12.078;2023-08-06T04:56:18;96777.34;;;15.47;86.72
26083;BME280;13848;49.018;12.078;2023-08-06T04:58:44;96767.28;;;15.47;86.46
26083;BME280;13848;49.018;12.078;2023-08-06T05:01:11;96767.28;;;15.47;86.62
26083;BME280;13848;49.018;12.078;2023-08-06T05:03:37;96769.47;;;15.50;86.50
26083;BME280;13848;49.018;12.078;2023-08-06T05:06:03;96766.16;;;15.53;85.98
26083;BME280;13848;49.018;12.078;2023-08-06T05:08:29;96758.03;;;15.53;86.44
26083;BME280;13848;49.018;12.078;2023-08-06T05:10:55;96758.59;;;15.55;86.19
26083;BME280;13848;49.018;12.078;2023-08-06T05:13:21;96758.56;;;15.60;86.18
26083;BME280;13848;49.018;12.078;2023-08-06T05:15:47;96763.19;;;15.65;85.45
26083;BME280;13848;49.018;12.078;2023-08-06T05:18:14;96769.69;;;15.69;85.20
26083;BME280;13848;49.018;12.078;2023-08-06T05:20:41;96761.28;;;15.60;85.78
26083;BME280;13848;49.018;12.078;2023-08-06T05:23:07;96770.78;;;15.68;85.35
26083;BME280;13848;49.018;12.078;2023-08-06T05:25:34;96767.25;;;15.67;85.15
26083;BME280;13848;49.018;12.078;2023-08-06T05:28:00;96768.09;;;15.63;85.16
26083;BME280;13848;49.018;12.078;2023-08-06T05:30:26;96759.63;;;15.59;85.81
26083;BME280;13848;49.018;12.078;2023-08-06T05:32:52;96759.94;;;15.63;86.01
26083;BME280;13848;49.018;12.078;2023-08-06T05:35:19;96762.38;;;15.64;86.30
26083;BME280;13848;49.018;12.078;2023-08-06T05:37:45;96766.16;;;15.68;85.93
26083;BME280;13848;49.018;12.078;2023-08-06T05:40:11;96771.59;;;15.74;85.58
26083;BME280;13848;49.018;12.078;2023-08-06T05:42:37;96769.47;;;15.65;85.84
26083;BME280;13848;49.018;12.078;2023-08-06T05:45:04;96769.47;;;15.65;85.77
26083;BME280;13848;49.018;12.078;2023-08-06T05:47:30;96780.03;;;15.67;85.71
26083;BME280;13848;49.018;12.078;2023-08-06T05:49:56;96777.56;;;15.70;85.54
26083;BME280;13848;49.018;12.078;2023-08-06T05:52:23;96769.97;;;15.57;86.19
26083;BME280;13848;49.018;12.078;2023-08-06T05:54:49;96770.28;;;15.46;86.49
26083;BME280;13848;49.018;12.078;2023-08-06T05:57:15;96778.13;;;15.57;86.39
26083;BME280;13848;49.018;12.078;2023-08-06T05:59:41;96774.91;;;15.65;85.76
26083;BME280;13848;49.018;12.078;2023-08-06T06:02:07;96771.06;;;15.56;85.23
26083;BME280;13848;49.018;12.078;2023-08-06T06:04:33;96766.19;;;15.63;85.31
26083;BME280;13848;49.018;12.078;2023-08-06T06:06:59;96761.53;;;15.54;84.59
26083;BME280;13848;49.018;12.078;2023-08-06T06:09:26;96764.00;;;15.55;84.76
26083;BME280;13848;49.018;12.078;2023-08-06T06:11:52;96752.06;;;15.56;84.94
26083;BME280;13848;49.018;12.078;2023-08-06T06:14:19;96758.59;;;15.65;85.32
26083;BME280;13848;49.018;12.078;2023-08-06T06:16:45;96753.38;;;15.74;84.46
26083;BME280;13848;49.018;12.078;2023-08-06T06:19:11;96758.59;;;15.65;84.68
26083;BME280;13848;49.018;12.078;2023-08-06T06:21:37;96760.44;;;15.70;84.71
26083;BME280;13848;49.018;12.078;2023-08-06T06:24:03;96755.31;;;15.68;84.42
26083;BME280;13848;49.018;12.078;2023-08-06T06:26:31;96754.78;;;15.66;84.55
26083;BME280;13848;49.018;12.078;2023-08-06T06:28:57;96744.16;;;15.70;84.55
26083;BME280;13848;49.018;12.078;2023-08-06T06:31:22;96742.78;;;15.73;84.36
26083;BME280;13848;49.018;12.078;2023-08-06T06:33:48;96755.78;;;15.81;84.16
26083;BME280;13848;49.018;12.078;2023-08-06T06:36:14;96751.16;;;15.81;83.81
26083;BME280;13848;49.018;12.078;2023-08-06T06:38:40;96751.44;;;15.85;84.19
26083;BME280;13848;49.018;12.078;2023-08-06T06:41:06;96742.69;;;15.93;84.42
26083;BME280;13848;49.018;12.078;2023-08-06T06:43:34;96749.72;;;15.99;84.31
26083;BME280;13848;49.018;12.078;2023-08-06T06:46:00;96738.53;;;16.11;83.79
26083;BME280;13848;49.018;12.078;2023-08-06T06:48:27;96740.09;;;16.22;83.90
26083;BME280;13848;49.018;12.078;2023-08-06T06:50:53;96739.78;;;16.29;83.15
26083;BME280;13848;49.018;12.078;2023-08-06T06:53:19;96743.59;;;16.28;82.77
26083;BME280;13848;49.018;12.078;2023-08-06T06:55:44;96734.97;;;16.15;83.31
26083;BME280;13848;49.018;12.078;2023-08-06T06:58:10;96732.75;;;16.17;83.29
26083;BME280;13848;49.018;12.078;2023-08-06T07:00:38;96732.75;;;16.17;83.41
26083;BME280;13848;49.018;12.078;2023-08-06T07:03:04;96728.91;;;16.29;83.54
26083;BME280;13848;49.018;12.078;2023-08-06T07:05:30;96729.41;;;16.36;83.10
26083;BME280;13848;49.018;12.078;2023-08-06T07:07:56;96720.69;;;16.34;83.75
26083;BME280;13848;49.018;12.078;2023-08-06T07:10:22;96724.78;;;16.36;83.61
26083;BME280;13848;49.018;12.078;2023-08-06T07:12:48;96731.16;;;16.56;83.47
26083;BME280;13848;49.018;12.078;2023-08-06T07:15:14;96729.19;;;16.71;83.17
26083;BME280;13848;49.018;12.078;2023-08-06T07:17:41;96724.63;;;16.57;82.45
26083;BME280;13848;49.018;12.078;2023-08-06T07:20:07;96728.38;;;16.66;82.43
26083;BME280;13848;49.018;12.078;2023-08-06T07:22:33;96721.78;;;16.77;82.39
26083;BME280;13848;49.018;12.078;2023-08-06T07:24:59;96715.44;;;17.16;82.90
26083;BME280;13848;49.018;12.078;2023-08-06T07:27:25;96728.03;;;17.36;81.50
26083;BME280;13848;49.018;12.078;2023-08-06T07:29:51;96726.50;;;17.53;80.59
26083;BME280;13848;49.018;12.078;2023-08-06T07:32:17;96722.59;;;17.36;79.20
26083;BME280;13848;49.018;12.078;2023-08-06T07:34:44;96723.06;;;17.43;79.62
26083;BME280;13848;49.018;12.078;2023-08-06T07:37:10;96722.41;;;17.51;79.66
26083;BME280;13848;49.018;12.078;2023-08-06T07:39:36;96718.38;;;17.72;79.64
26083;BME280;13848;49.018;12.078;2023-08-06T07:42:02;96720.06;;;17.92;78.06
26083;BME280;13848;49.018;12.078;2023-08-06T07:44:28;96720.72;;;18.03;78.24
26083;BME280;13848;49.018;12.078;2023-08-06T07:46:54;96710.91;;;18.02;76.45
26083;BME280;13848;49.018;12.078;2023-08-06T07:49:21;96709.28;;;18.01;76.81
26083;BME280;13848;49.018;12.078;2023-08-06T07:51:48;96707.00;;;18.08;76.18
26083;BME280;13848;49.018;12.078;2023-08-06T07:54:14;96702.66;;;18.07;74.74
26083;BME280;13848;49.018;12.078;2023-08-06T07:56:40;96697.22;;;18.07;75.55
26083;BME280;13848;49.018;12.078;2023-08-06T07:59:06;96695.03;;;17.85;74.55
26083;BME280;13848;49.018;12.078;2023-08-06T08:01:32;96693.75;;;18.01;73.85
26083;BME280;13848;49.018;12.078;2023-08-06T08:03:58;96696.97;;;17.85;74.30
26083;BME280;13848;49.018;12.078;2023-08-06T08:06:24;96692.25;;;17.66;73.59
26083;BME280;13848;49.018;12.078;2023-08-06T08:08:51;96688.91;;;17.50;73.66
26083;BME280;13848;49.018;12.078;2023-08-06T08:11:17;96698.81;;;17.65;73.67
26083;BME280;13848;49.018;12.078;2023-08-06T08:13:43;96698.00;;;17.65;73.32
26083;BME280;13848;49.018;12.078;2023-08-06T08:16:09;96697.25;;;17.59;73.55
26083;BME280;13848;49.018;12.078;2023-08-06T08:18:35;96699.94;;;17.64;72.41
26083;BME280;13848;49.018;12.078;2023-08-06T08:21:00;96699.63;;;17.90;73.06
26083;BME280;13848;49.018;12.078;2023-08-06T08:23:26;96694.09;;;17.95;72.71
26083;BME280;13848;49.018;12.078;2023-08-06T08:25:54;96696.00;;;17.75;72.52
26083;BME280;13848;49.018;12.078;2023-08-06T08:28:20;96687.91;;;17.89;72.61
26083;BME280;13848;49.018;12.078;2023-08-06T08:30:46;96695.84;;;17.86;72.20
26083;BME280;13848;49.018;12.078;2023-08-06T08:33:13;96695.13;;;17.80;72.11
26083;BME280;13848;49.018;12.078;2023-08-06T08:35:39;96692.19;;;18.14;72.08
26083;BME280;13848;49.018;12.078;2023-08-06T08:38:05;96685.28;;;18.41;71.35
26083;BME280;13848;49.018;12.078;2023-08-06T08:40:32;96680.59;;;18.79;71.58
26083;BME280;13848;49.018;12.078;2023-08-06T08:42:59;96682.47;;;18.97;69.89
26083;BME280;13848;49.018;12.078;2023-08-06T08:45:26;96677.81;;;18.98;70.55
26083;BME280;13848;49.018;12.078;2023-08-06T08:47:54;96683.59;;;18.77;69.80
26083;BME280;13848;49.018;12.078;2023-08-06T08:50:21;96674.34;;;18.41;69.24
26083;BME280;13848;49.018;12.078;2023-08-06T08:52:47;96681.84;;;18.49;70.59
26083;BME280;13848;49.018;12.078;2023-08-06T08:55:16;96674.66;;;18.39;70.95
26083;BME280;13848;49.018;12.078;2023-08-06T08:57:42;96680.78;;;18.50;71.23
26083;BME280;13848;49.018;12.078;2023-08-06T09:00:10;96676.78;;;18.42;71.20
26083;BME280;13848;49.018;12.078;2023-08-06T09:02:37;96674.94;;;18.38;72.33
26083;BME280;13848;49.018;12.078;2023-08-06T09:05:05;96673.59;;;18.54;70.52
26083;BME280;13848;49.018;12.078;2023-08-06T09:07:35;96677.28;;;18.63;71.45
26083;BME280;13848;49.018;12.078;2023-08-06T09:10:05;96665.25;;;18.64;68.96
26083;BME280;13848;49.018;12.078;2023-08-06T09:12:32;96663.66;;;19.09;71.56
26083;BME280;13848;49.018;12.078;2023-08-06T09:14:58;96663.03;;;18.99;67.54
26083;BME280;13848;49.018;12.078;2023-08-06T09:17:25;96658.38;;;18.99;65.89
26083;BME280;13848;49.018;12.078;2023-08-06T09:19:51;96653.34;;;19.20;66.27
26083;BME280;13848;49.018;12.078;2023-08-06T09:22:17;96653.34;;;19.20;65.82
26083;BME280;13848;49.018;12.078;2023-08-06T09:24:43;96646.28;;;19.33;65.38
26083;BME280;13848;49.018;12.078;2023-08-06T09:27:13;96644.03;;;19.35;65.74
26083;BME280;13848;49.018;12.078;2023-08-06T09:29:42;96644.94;;;19.30;65.55
26083;BME280;13848;49.018;12.078;2023-08-06T09:32:08;96653.84;;;19.08;63.93
26083;BME280;13848;49.018;12.078;2023-08-06T09:34:38;96644.63;;;18.91;62.57
26083;BME280;13848;49.018;12.078;2023-08-06T09:37:04;96641.09;;;19.04;63.82
26083;BME280;13848;49.018;12.078;2023-08-06T09:39:31;96641.63;;;19.33;62.71
26083;BME280;13848;49.018;12.078;2023-08-06T09:41:58;96625.63;;;19.54;61.61
26083;BME280;13848;49.018;12.078;2023-08-06T09:44:25;96629.38;;;19.72;62.08
26083;BME280;13848;49.018;12.078;2023-08-06T09:46:53;96633.81;;;19.68;60.94
26083;BME280;13848;49.018;12.078;2023-08-06T09:49:20;96660.03;;;19.14;60.84
26083;BME280;13848;49.018;12.078;2023-08-06T09:51:48;96669.56;;;18.32;65.50
26083;BME280;13848;49.018;12.078;2023-08-06T09:54:15;96664.47;;;18.07;66.12
26083;BME280;13848;49.018;12.078;2023-08-06T09:56:42;96659.75;;;18.13;66.73
26083;BME280;13848;49.018;12.078;2023-08-06T09:59:09;96651.59;;;17.94;66.73
26083;BME280;13848;49.018;12.078;2023-08-06T10:01:35;96656.44;;;17.78;67.72
26083;BME280;13848;49.018;12.078;2023-08-06T10:04:02;96659.91;;;17.84;68.08
26083;BME280;13848;49.018;12.078;2023-08-06T10:06:29;96658.34;;;17.77;68.49
26083;BME280;13848;49.018;12.078;2023-08-06T10:08:57;96660.34;;;17.91;68.47
26083;BME280;13848;49.018;12.078;2023-08-06T10:11:24;96660.84;;;17.74;68.91
26083;BME280;13848;49.018;12.078;2023-08-06T10:13:53;96657.28;;;17.73;68.71
26083;BME280;13848;49.018;12.078;2023-08-06T10:16:21;96654.63;;;17.92;68.85
26083;BME280;13848;49.018;12.078;2023-08-06T10:18:48;96648.63;;;17.90;69.84
26083;BME280;13848;49.018;12.078;2023-08-06T10:21:15;96654.25;;;17.99;70.35
26083;BME280;13848;49.018;12.078;2023-08-06T10:23:41;96658.88;;;18.17;69.05
26083;BME280;13848;49.018;12.078;2023-08-06T10:26:08;96652.44;;;18.46;68.12
26083;BME280;13848;49.018;12.078;2023-08-06T10:28:35;96657.81;;;18.32;67.28
26083;BME280;13848;49.018;12.078;2023-08-06T10:31:01;96661.44;;;18.08;68.47
26083;BME280;13848;49.018;12.078;2023-08-06T10:33:40;96659.53;;;17.90;68.90
26083;BME280;13848;49.018;12.078;2023-08-06T10:36:08;96648.34;;;17.92;70.16
26083;BME280;13848;49.018;12.078;2023-08-06T10:38:35;96648.41;;;18.24;70.06
26083;BME280;13848;49.018;12.078;2023-08-06T10:41:15;96642.28;;;18.65;71.00
26083;BME280;13848;49.018;12.078;2023-08-06T10:43:41;96637.03;;;19.01;70.32
26083;BME280;13848;49.018;12.078;2023-08-06T10:46:09;96636.66;;;19.08;69.47
26083;BME280;13848;49.018;12.078;2023-08-06T10:48:36;96643.41;;;19.10;68.97
26083;BME280;13848;49.018;12.078;2023-08-06T10:51:03;96640.59;;;19.16;68.06
26083;BME280;13848;49.018;12.078;2023-08-06T10:53:29;96641.41;;;19.30;68.36
26083;BME280;13848;49.018;12.078;2023-08-06T10:55:55;96641.22;;;19.26;67.38
26083;BME280;13848;49.018;12.078;2023-08-06T10:58:23;96640.16;;;18.95;68.60
26083;BME280;13848;49.018;12.078;2023-08-06T11:00:49;96640.53;;;18.74;69.37
26083;BME280;13848;49.018;12.078;2023-08-06T11:03:15;96640.44;;;18.79;69.68
26083;BME280;13848;49.018;12.078;2023-08-06T11:05:41;96637.56;;;18.71;68.70
26083;BME280;13848;49.018;12.078;2023-08-06T11:08:23;96630.31;;;18.61;69.44
26083;BME280;13848;49.018;12.078;2023-08-06T11:10:49;96639.66;;;18.93;69.94
26083;BME280;13848;49.018;12.078;2023-08-06T11:13:16;96635.72;;;18.99;69.40
26083;BME280;13848;49.018;12.078;2023-08-06T11:15:44;96640.06;;;19.00;69.65
26083;BME280;13848;49.018;12.078;2023-08-06T11:18:10;96642.00;;;19.13;69.48
26083;BME280;13848;49.018;12.078;2023-08-06T11:20:38;96641.22;;;19.26;70.01
26083;BME280;13848;49.018;12.078;2023-08-06T11:23:04;96637.94;;;19.24;70.00
26083;BME280;13848;49.018;12.078;2023-08-06T11:25:30;96624.28;;;19.52;70.39
26083;BME280;13848;49.018;12.078;2023-08-06T11:27:56;96632.69;;;19.69;68.92
26083;BME280;13848;49.018;12.078;2023-08-06T11:30:22;96636.16;;;19.75;68.58
26083;BME280;13848;49.018;12.078;2023-08-06T11:32:49;96631.28;;;19.58;67.79
26083;BME280;13848;49.018;12.078;2023-08-06T11:35:16;96625.59;;;19.40;68.35
26083;BME280;13848;49.018;12.078;2023-08-06T11:37:44;96625.00;;;19.02;68.15
26083;BME280;13848;49.018;12.078;2023-08-06T11:40:10;96638.44;;;18.66;67.64
26083;BME280;13848;49.018;12.078;2023-08-06T11:42:36;96620.72;;;18.82;69.56
26083;BME280;13848;49.018;12.078;2023-08-06T11:45:02;96613.38;;;19.38;69.06
26083;BME280;13848;49.018;12.078;2023-08-06T11:47:29;96608.19;;;19.78;67.43
26083;BME280;13848;49.018;12.078;2023-08-06T11:49:56;96605.91;;;19.93;65.51
26083;BME280;13848;49.018;12.078;2023-08-06T11:52:23;96611.25;;;19.99;70.23
26083;BME280;13848;49.018;12.078;2023-08-06T11:55:00;96608.53;;;19.99;65.26
26083;BME280;13848;49.018;12.078;2023-08-06T11:57:29;96617.50;;;19.77;64.23
26083;BME280;13848;49.018;12.078;2023-08-06T11:59:55;96617.59;;;19.58;63.57
26083;BME280;13848;49.018;12.078;2023-08-06T12:02:21;96618.13;;;19.32;64.54
26083;BME280;13848;49.018;12.078;2023-08-06T12:04:59;96621.66;;;19.05;63.59
26083;BME280;13848;49.018;12.078;2023-08-06T12:07:27;96619.91;;;18.96;63.53
26083;BME280;13848;49.018;12.078;2023-08-06T12:09:53;96622.75;;;18.91;63.84
26083;BME280;13848;49.018;12.078;2023-08-06T12:12:19;96611.63;;;19.01;62.10
26083;BME280;13848;49.018;12.078;2023-08-06T12:14:45;96620.75;;;19.10;60.96
26083;BME280;13848;49.018;12.078;2023-08-06T12:17:10;96615.91;;;19.34;62.16
26083;BME280;13848;49.018;12.078;2023-08-06T12:19:36;96620.34;;;19.30;61.42
26083;BME280;13848;49.018;12.078;2023-08-06T12:22:04;96622.38;;;19.38;62.39
26083;BME280;13848;49.018;12.078;2023-08-06T12:24:30;96612.34;;;19.48;62.03
26083;BME280;13848;49.018;12.078;2023-08-06T12:26:56;96621.47;;;19.43;61.62
26083;BME280;13848;49.018;12.078;2023-08-06T12:29:22;96625.50;;;19.46;61.74
26083;BME280;13848;49.018;12.078;2023-08-06T12:31:47;96620.34;;;19.30;60.39
26083;BME280;13848;49.018;12.078;2023-08-06T12:34:13;96626.81;;;19.07;60.60
26083;BME280;13848;49.018;12.078;2023-08-06T12:36:39;96620.53;;;18.93;60.12
26083;BME280;13848;49.018;12.078;2023-08-06T12:39:07;96634.28;;;18.87;61.09
26083;BME280;13848;49.018;12.078;2023-08-06T12:41:32;96666.94;;;18.60;60.32
26083;BME280;13848;49.018;12.078;2023-08-06T12:43:58;96667.78;;;17.85;62.50
26083;BME280;13848;49.018;12.078;2023-08-06T12:46:24;96686.72;;;17.76;65.49